KSKA/SKA METAR and TAF weather

Enter ICAO airport designator
Station Type Date Time Source
KSKA METAR 2022/11/30 16:20 UTC NOAA

KSKA 301620Z 15017KT 5/8SM R05/3500V4500FT -SN BR OVC003 M01/M03 A2947 RMK AO2A SLP271 $


Station Type Date Time Source
KSKA Decoded METAR 2022/11/30 16:20 UTC NOAA

Fairchild Air Force Base, WA, United States (KSKA) 47-37N 117-39W
Nov 30, 2022 - 11:20 AM EST / 2022.11.30 1620 UTC
Wind: from the SSE (150 degrees) at 20 MPH (17 KT) (direction variable):0
Visibility: 5/8 mile(s):0
Sky conditions: overcast
Weather: light snow; mist
Temperature: 30 F (-1 C)
Windchill: 17 F (-8 C):1
Dew Point: 26 F (-3 C)
Relative Humidity: 86%
Pressure (altimeter): 29.47 in. Hg (997 hPa)
ob: KSKA 301620Z 15017KT 5/8SM R05/3500V4500FT -SN BR OVC003 M01/M03 A2947 RMK AO2A SLP271
cycle: 16

Station Type Date Time Source
KSKA TAF 2022/11/30 15:54 UTC NOAA

TAF
AMD KSKA 301500Z 3015/0117 15015G25KT 0800 SN OVC004 620049 QNH2945INS
BECMG 3020/3021 19012G18KT 3200 -SN BR OVC006 620069 QNH2942INS
BECMG 0104/0105 VRB06KT 4000 BR SCT010 BKN050 620505 QNH2940INS
BECMG 0111/0112 VRB06KT 0800 SN OVC003 620039 QNH2940INS TXM01/3021Z TNM02/3015Z

Example: see airport list